Norse Mersey — IBEN — position and weather

sailwx.info

Track history (hours):
 
Tides and Currents Weather Stations Pressure Air Temp Water Temp Dewpoint Dewpoint Depression Visibility Wind Speed Wind Dir Waves Ship Positions

Norse Mersey

Operator: Norse Merchant Ferries

Last reported at 2014-Jul-31 08:28 UTC. Time now 2014-Jul-31 11:32 UTC.
Position N 40°32' E 014°43'.

Length 175 m; draft 5.6 m.

Type: Passenger vessel. MMSI: 247026000.

Date/timePositionNaut miles runAvg speedWind from/ knotsBaromVisibWave heightAir tempDewpointWater temp
2014-Jul-31 08:28N 40°32' E 014°43'11 0.3
2014-Jul-29 22:26N 40°21' E 014°43'240 7.2
2014-Jul-28 13:10N 36°22' E 015°02'1016.0
2014-Jul-28 12:33N 36°15' E 014°54'1616.1
2014-Jul-28 11:33N 36°03' E 014°41'1212.1
2014-Jul-28 10:31N 35°53' E 014°31'0 0.0
2014-Jul-28 09:28N 35°53' E 014°31'0 0.0
2014-Jul-28 08:22N 35°53' E 014°31'0 0.0
2014-Jul-28 07:31N 35°53' E 014°31'0 0.0
2014-Jul-28 04:28N 35°53' E 014°31'0 0.0
2014-Jul-28 03:10N 35°53' E 014°31'0 0.0
2014-Jul-28 02:19N 35°53' E 014°31'0 0.0
2014-Jul-28 01:32N 35°53' E 014°31'6 6.6
2014-Jul-28 00:33N 35°58' E 014°36'265 6.6
2014-Jul-26 08:31N 40°23' E 014°43'6 0.2
2014-Jul-24 19:32N 40°29' E 014°43'2 0.2
2014-Jul-24 08:19N 40°31' E 014°43'10 0.3
2014-Jul-22 23:12N 40°21' E 014°43'1015.8
2014-Jul-22 22:33N 40°31' E 014°43'0 0.0
2014-Jul-22 12:09N 40°32' E 014°43'25011.0
2014-Jul-21 13:24N 36°22' E 015°02'1315.9
2014-Jul-21 12:33N 36°12' E 014°50'1615.6
2014-Jul-21 11:33N 35°60' E 014°38'9 8.2
2014-Jul-21 10:29N 35°53' E 014°31'0 0.0
2014-Jul-21 09:20N 35°53' E 014°31'  
Track history (hours):
 
Tides and Currents Weather Stations Pressure Air Temp Water Temp Dewpoint Dewpoint Depression Visibility Wind Speed Wind Dir Waves Ship Positions

Norse Mersey

Operator: Norse Merchant Ferries

Last reported at 2014-Jul-31 08:28 UTC. Time now 2014-Jul-31 11:32 UTC.
Position N 40°32' E 014°43'.

Length 175 m; draft 5.6 m.

Type: Passenger vessel. MMSI: 247026000.

Date/timePositionNaut miles runAvg speedWind from/ knotsBaromVisibWave heightAir tempDewpointWater temp
2014-Jul-31 08:28N 40°32' E 014°43'11 0.3
2014-Jul-29 22:26N 40°21' E 014°43'240 7.2
2014-Jul-28 13:10N 36°22' E 015°02'1016.0
2014-Jul-28 12:33N 36°15' E 014°54'1616.1
2014-Jul-28 11:33N 36°03' E 014°41'1212.1
2014-Jul-28 10:31N 35°53' E 014°31'0 0.0
2014-Jul-28 09:28N 35°53' E 014°31'0 0.0
2014-Jul-28 08:22N 35°53' E 014°31'0 0.0
2014-Jul-28 07:31N 35°53' E 014°31'0 0.0
2014-Jul-28 04:28N 35°53' E 014°31'0 0.0
2014-Jul-28 03:10N 35°53' E 014°31'0 0.0
2014-Jul-28 02:19N 35°53' E 014°31'0 0.0
2014-Jul-28 01:32N 35°53' E 014°31'6 6.6
2014-Jul-28 00:33N 35°58' E 014°36'265 6.6
2014-Jul-26 08:31N 40°23' E 014°43'6 0.2
2014-Jul-24 19:32N 40°29' E 014°43'2 0.2
2014-Jul-24 08:19N 40°31' E 014°43'10 0.3
2014-Jul-22 23:12N 40°21' E 014°43'1015.8
2014-Jul-22 22:33N 40°31' E 014°43'0 0.0
2014-Jul-22 12:09N 40°32' E 014°43'25011.0
2014-Jul-21 13:24N 36°22' E 015°02'1315.9
2014-Jul-21 12:33N 36°12' E 014°50'1615.6
2014-Jul-21 11:33N 35°60' E 014°38'9 8.2
2014-Jul-21 10:29N 35°53' E 014°31'0 0.0
2014-Jul-21 09:20N 35°53' E 014°31'  

Dump ship's entire track history